createdAt,value
2022-08-22T00:01:53.488Z,99124.84
2022-08-22T00:02:41.623Z,99072.53
2022-08-22T00:03:07.177Z,99098.28
2022-08-22T00:04:44.785Z,99126.53
2022-08-22T00:07:23.371Z,99132.63
2022-08-22T00:09:59.745Z,99134.09
2022-08-22T00:12:29.528Z,99136.81
2022-08-22T00:15:05.865Z,99125.44
2022-08-22T00:17:35.402Z,99126.25
2022-08-22T00:20:30.902Z,99118.56
2022-08-22T00:23:12.435Z,99122.78
2022-08-22T00:25:57.557Z,99110.63
2022-08-22T00:28:42.548Z,99116.59
2022-08-22T00:31:15.941Z,99118.00
2022-08-22T00:34:00.541Z,99118.13
2022-08-22T00:36:42.312Z,99112.91
2022-08-22T00:39:21.215Z,99113.81
2022-08-22T00:41:59.817Z,99111.25
2022-08-22T00:44:44.508Z,99110.41
2022-08-22T00:47:47.677Z,99112.22
2022-08-22T00:50:35.332Z,99117.47
2022-08-22T00:53:20.084Z,99117.56
2022-08-22T00:55:57.658Z,99112.94
2022-08-22T00:58:30.065Z,99112.91
2022-08-22T01:01:04.008Z,99110.03
2022-08-22T01:03:42.494Z,99110.84
2022-08-22T01:06:34.945Z,99113.69
2022-08-22T01:09:27.341Z,99115.09
2022-08-22T01:12:24.517Z,99109.91
2022-08-22T01:15:07.951Z,99109.94
2022-08-22T01:17:40.453Z,99104.66
2022-08-22T01:20:37.461Z,99110.78
2022-08-22T01:23:24.983Z,99104.56
2022-08-22T01:26:19.720Z,99095.75
2022-08-22T01:29:10.453Z,99095.59
2022-08-22T01:32:04.561Z,99099.16
2022-08-22T01:34:42.012Z,99098.28
2022-08-22T01:37:23.563Z,99106.84
2022-08-22T01:40:27.357Z,99111.06
2022-08-22T01:43:10.736Z,99109.06
2022-08-22T01:45:54.517Z,99101.22
2022-08-22T01:48:48.325Z,99107.16
2022-08-22T01:51:22.512Z,99092.44
2022-08-22T01:54:04.572Z,99111.41
2022-08-22T01:56:40.945Z,99102.72
2022-08-22T01:59:14.977Z,99104.28
2022-08-22T02:01:50.636Z,99101.69
2022-08-22T02:04:47.777Z,99104.09
2022-08-22T02:07:32.010Z,99093.63
2022-08-22T02:10:14.009Z,99098.66
2022-08-22T02:12:49.797Z,99097.88
2022-08-22T02:15:19.291Z,99097.59
2022-08-22T02:17:51.240Z,99096.91
2022-08-22T02:20:29.950Z,99093.53
2022-08-22T02:23:30.764Z,99094.66
2022-08-22T02:26:16.877Z,99087.00
2022-08-22T02:28:56.951Z,99088.72
2022-08-22T02:31:38.713Z,99092.59
2022-08-22T02:34:24.635Z,99098.47
2022-08-22T02:37:02.369Z,99090.81
2022-08-22T02:39:55.308Z,99094.41
2022-08-22T02:42:42.162Z,99097.53
2022-08-22T02:45:26.965Z,99082.75
2022-08-22T02:48:05.372Z,99087.25
2022-08-22T02:50:43.584Z,99090.63
2022-08-22T02:53:23.857Z,99096.25
2022-08-22T02:55:59.566Z,99085.72
2022-08-22T02:59:17.350Z,99091.59
2022-08-22T03:01:46.072Z,99081.56
2022-08-22T03:04:23.031Z,99085.88
2022-08-22T03:06:58.564Z,99094.13
2022-08-22T03:09:29.417Z,99090.50
2022-08-22T03:12:14.345Z,99087.84
2022-08-22T03:14:45.238Z,99087.00
2022-08-22T03:17:22.737Z,99080.41
2022-08-22T03:19:53.000Z,99080.72
2022-08-22T03:22:23.488Z,99073.66
2022-08-22T03:25:00.058Z,99078.06
2022-08-22T03:27:36.267Z,99077.34
2022-08-22T03:30:11.761Z,99076.88
2022-08-22T03:32:56.760Z,99075.00
2022-08-22T03:35:36.513Z,99072.34
2022-08-22T03:38:28.600Z,99073.00
2022-08-22T03:41:01.259Z,99073.19
2022-08-22T03:43:52.423Z,99071.16
2022-08-22T03:46:52.856Z,99067.88
2022-08-22T03:49:22.287Z,99069.03
2022-08-22T03:52:33.877Z,99065.13
2022-08-22T03:55:19.170Z,99067.97
2022-08-22T03:58:27.877Z,99065.69
2022-08-22T04:01:00.890Z,99073.53
2022-08-22T04:03:54.793Z,99065.06
2022-08-22T04:06:56.434Z,99072.09
2022-08-22T04:09:29.170Z,99074.88
2022-08-22T04:12:23.988Z,99074.59
2022-08-22T04:15:09.414Z,99075.09
2022-08-22T04:17:55.732Z,99069.56
2022-08-22T04:21:01.591Z,99069.66
2022-08-22T04:23:49.273Z,99072.59
2022-08-22T04:26:37.888Z,99072.59
2022-08-22T04:29:45.101Z,99078.97
2022-08-22T04:32:20.530Z,99072.97
2022-08-22T04:34:54.951Z,99080.09
2022-08-22T04:37:57.493Z,99071.34
2022-08-22T04:40:40.297Z,99077.28
2022-08-22T04:43:25.489Z,99083.25
2022-08-22T04:46:00.329Z,99088.09
2022-08-22T04:48:40.836Z,99090.84
2022-08-22T04:51:23.527Z,99085.84
2022-08-22T04:53:49.922Z,99090.28
2022-08-22T04:56:30.784Z,99092.75
2022-08-22T04:59:00.157Z,99092.75
2022-08-22T05:01:48.201Z,99091.03
2022-08-22T05:04:20.196Z,99092.06
2022-08-22T05:06:51.055Z,99087.81
2022-08-22T05:09:24.240Z,99093.56
2022-08-22T05:11:54.057Z,99101.38
2022-08-22T05:14:40.311Z,99097.78
2022-08-22T05:17:09.971Z,99102.00
2022-08-22T05:19:40.950Z,99099.75
2022-08-22T05:22:14.456Z,99108.84
2022-08-22T05:24:44.219Z,99100.25
2022-08-22T05:27:14.377Z,99104.66
2022-08-22T05:29:43.057Z,99105.56
2022-08-22T05:32:36.570Z,99104.94
2022-08-22T05:35:05.069Z,99110.03
2022-08-22T05:37:49.713Z,99113.00
2022-08-22T05:40:21.389Z,99103.94
2022-08-22T05:42:48.078Z,99117.84
2022-08-22T05:45:17.085Z,99110.03
2022-08-22T05:47:48.452Z,99120.56
2022-08-22T05:50:57.131Z,99126.09
2022-08-22T05:53:30.613Z,99121.56
2022-08-22T05:56:02.212Z,99125.59
2022-08-22T05:58:43.790Z,99131.84
2022-08-22T06:01:31.418Z,99126.72
2022-08-22T06:04:06.818Z,99124.25
2022-08-22T06:06:57.761Z,99126.91
2022-08-22T06:09:48.561Z,99124.72
2022-08-22T06:12:21.833Z,99124.88
2022-08-22T06:15:12.612Z,99134.38
2022-08-22T06:17:44.789Z,99128.84
2022-08-22T06:20:17.233Z,99132.94
2022-08-22T06:22:51.475Z,99134.03
2022-08-22T06:25:34.934Z,99130.63
2022-08-22T06:28:09.864Z,99144.84
2022-08-22T06:30:38.248Z,99134.44
2022-08-22T06:33:12.269Z,99132.84
2022-08-22T06:36:01.463Z,99124.22
2022-08-22T06:38:33.479Z,99136.53
2022-08-22T06:41:02.989Z,99133.81
2022-08-22T06:43:39.758Z,99136.56
2022-08-22T06:46:06.878Z,99140.13
2022-08-22T06:48:34.773Z,99143.59
2022-08-22T06:51:01.671Z,99134.78
2022-08-22T06:53:48.848Z,99129.41
2022-08-22T06:56:24.536Z,99137.94
2022-08-22T06:58:55.020Z,99135.78
2022-08-22T07:01:24.135Z,99132.72
2022-08-22T07:03:57.400Z,99132.50
2022-08-22T07:06:46.200Z,99131.13
2022-08-22T07:09:26.491Z,99138.28
2022-08-22T07:11:55.485Z,99133.81
2022-08-22T07:14:35.263Z,99130.28
2022-08-22T07:17:04.345Z,99139.25
2022-08-22T07:19:37.907Z,99137.22
2022-08-22T07:22:28.705Z,99131.13
2022-08-22T07:24:59.911Z,99131.56
2022-08-22T07:27:38.626Z,99129.31
2022-08-22T07:30:10.077Z,99126.66
2022-08-22T07:32:58.833Z,99123.38
2022-08-22T07:35:53.539Z,99125.47
2022-08-22T07:38:42.740Z,99128.91
2022-08-22T07:41:21.960Z,99125.25
2022-08-22T07:43:51.480Z,99123.25
2022-08-22T07:46:37.316Z,99125.03
2022-08-22T07:49:14.274Z,99127.06
2022-08-22T07:51:50.653Z,99127.22
2022-08-22T07:54:27.209Z,99130.47
2022-08-22T07:56:59.204Z,99128.06
2022-08-22T07:59:28.106Z,99123.56
2022-08-22T08:01:57.322Z,99129.31
2022-08-22T08:04:26.400Z,99131.59
2022-08-22T08:06:56.528Z,99126.44
2022-08-22T08:09:24.022Z,99132.78
2022-08-22T08:11:53.311Z,99136.66
2022-08-22T08:14:23.572Z,99135.94
2022-08-22T08:17:05.889Z,99143.06
2022-08-22T08:19:34.896Z,99137.91
2022-08-22T08:22:02.166Z,99144.78
2022-08-22T08:24:40.524Z,99144.59
2022-08-22T08:27:41.173Z,99152.19
2022-08-22T08:30:40.236Z,99150.88
2022-08-22T08:33:24.441Z,99137.31
2022-08-22T08:36:03.193Z,99140.63
2022-08-22T08:38:36.574Z,99145.63
2022-08-22T08:41:40.192Z,99156.22
2022-08-22T08:44:28.640Z,99164.75
2022-08-22T08:47:07.046Z,99158.75
2022-08-22T08:49:43.027Z,99145.19
2022-08-22T08:52:34.493Z,99146.44
2022-08-22T08:55:26.086Z,99158.81
2022-08-22T08:57:59.444Z,99152.63
2022-08-22T09:00:39.547Z,99152.06
2022-08-22T09:06:42.303Z,99139.06
2022-08-22T09:09:15.076Z,99135.41
2022-08-22T09:12:03.064Z,99138.41
2022-08-22T09:14:45.789Z,99140.41
2022-08-22T09:17:21.190Z,99124.63
2022-08-22T09:20:17.593Z,99129.44
2022-08-22T09:23:03.253Z,99127.47
2022-08-22T09:25:51.094Z,99130.19
2022-08-22T09:28:30.302Z,99126.19
2022-08-22T09:31:16.975Z,99125.84
2022-08-22T09:34:09.092Z,99124.38
2022-08-22T09:37:29.502Z,99120.03
2022-08-22T09:40:15.326Z,99145.09
2022-08-22T09:40:17.633Z,99111.25
2022-08-22T09:42:58.105Z,99110.63
2022-08-22T09:45:36.705Z,99109.59
2022-08-22T09:48:16.761Z,99109.91
2022-08-22T09:51:28.615Z,99105.34
2022-08-22T09:56:18.920Z,99102.69
2022-08-22T09:59:00.424Z,99098.84
2022-08-22T10:01:32.862Z,99099.06
2022-08-22T10:04:19.561Z,99098.00
2022-08-22T10:06:58.117Z,99091.53
2022-08-22T10:09:48.863Z,99096.25
2022-08-22T10:12:30.539Z,99088.81
2022-08-22T10:15:06.926Z,99093.00
2022-08-22T10:17:41.412Z,99081.50
2022-08-22T10:20:23.103Z,99072.41
2022-08-22T10:22:58.892Z,99075.81
2022-08-22T10:25:41.748Z,99067.25
2022-08-22T10:28:32.756Z,99070.00
2022-08-22T10:31:16.023Z,99069.41
2022-08-22T10:33:51.185Z,99063.41
2022-08-22T10:36:26.076Z,99058.25
2022-08-22T10:38:55.955Z,99057.16
2022-08-22T10:41:46.343Z,99058.13
2022-08-22T10:44:30.950Z,99059.44
2022-08-22T10:47:20.978Z,99059.69
2022-08-22T10:49:54.065Z,99055.09
2022-08-22T10:52:24.081Z,99051.22
2022-08-22T10:54:53.499Z,99041.03
2022-08-22T10:57:36.533Z,99034.53
2022-08-22T11:00:33.922Z,99039.41
2022-08-22T11:03:21.792Z,99046.44
2022-08-22T11:05:51.315Z,99045.34
2022-08-22T11:08:23.741Z,99035.47
2022-08-22T11:11:32.750Z,99037.75
2022-08-22T11:14:19.003Z,99031.09
2022-08-22T11:16:59.442Z,99037.00
2022-08-22T11:19:33.642Z,99047.22
2022-08-22T11:22:21.389Z,99038.28
2022-08-22T11:25:28.648Z,99027.31
2022-08-22T11:30:10.929Z,99026.84
2022-08-22T11:33:10.279Z,99025.38
2022-08-22T11:35:49.536Z,99006.41
2022-08-22T11:38:36.613Z,99013.66
2022-08-22T11:41:15.063Z,99007.38
2022-08-22T11:43:51.933Z,99001.50
2022-08-22T11:46:27.195Z,99013.19
2022-08-22T11:49:21.477Z,99001.31
2022-08-22T11:51:59.235Z,99009.63
2022-08-22T11:54:47.404Z,99002.06
2022-08-22T11:57:26.608Z,99012.34
2022-08-22T12:00:12.944Z,99017.53
2022-08-22T12:02:53.249Z,99008.44
2022-08-22T12:05:28.241Z,99010.19
2022-08-22T12:08:00.414Z,99006.78
2022-08-22T12:10:32.533Z,99002.94
2022-08-22T12:13:15.019Z,99001.53
2022-08-22T12:16:16.027Z,99000.13
2022-08-22T12:18:52.702Z,98992.59
2022-08-22T12:21:43.769Z,98987.03
2022-08-22T12:24:38.359Z,98993.72
2022-08-22T12:27:29.162Z,99001.97
2022-08-22T12:30:25.486Z,98991.88
2022-08-22T12:33:06.958Z,98991.78
2022-08-22T12:35:41.978Z,98995.84
2022-08-22T12:38:46.636Z,98989.59
2022-08-22T12:41:28.028Z,98990.78
2022-08-22T12:44:09.102Z,98982.72
2022-08-22T12:47:04.542Z,98983.25
2022-08-22T12:49:52.808Z,98985.78
2022-08-22T12:53:01.326Z,98980.16
2022-08-22T12:55:56.662Z,98970.25
2022-08-22T12:58:46.558Z,98968.59
2022-08-22T13:01:18.415Z,98962.19
2022-08-22T13:03:50.365Z,98958.91
2022-08-22T13:06:34.902Z,98964.94
2022-08-22T13:09:16.855Z,98958.66
2022-08-22T13:11:47.209Z,98964.56
2022-08-22T13:14:19.637Z,98963.19
2022-08-22T13:16:52.946Z,98957.25
2022-08-22T13:19:26.987Z,98954.66
2022-08-22T13:22:02.245Z,98968.84
2022-08-22T13:24:51.844Z,98954.94
2022-08-22T13:27:27.122Z,98957.72
2022-08-22T13:30:04.580Z,98957.97
2022-08-22T13:32:53.274Z,98961.16
2022-08-22T13:35:32.522Z,98955.00
2022-08-22T13:38:06.502Z,98949.28
2022-08-22T13:40:34.051Z,98960.88
2022-08-22T13:43:11.103Z,98952.63
2022-08-22T13:45:38.955Z,98945.31
2022-08-22T13:48:11.613Z,98946.66
2022-08-22T13:51:06.076Z,98953.28
2022-08-22T13:53:40.949Z,98950.00
2022-08-22T13:56:15.928Z,98949.13
2022-08-22T13:58:48.799Z,98941.72
2022-08-22T14:01:38.985Z,98941.56
2022-08-22T14:04:34.599Z,98932.59
2022-08-22T14:07:03.640Z,98934.19
2022-08-22T14:09:53.011Z,98931.00
2022-08-22T14:12:33.323Z,98933.13
2022-08-22T14:15:02.786Z,98931.25
2022-08-22T14:17:42.707Z,98924.38
2022-08-22T14:20:11.132Z,98923.59
2022-08-22T14:22:40.026Z,98920.13
2022-08-22T14:25:18.686Z,98918.72
2022-08-22T14:27:52.463Z,98917.59
2022-08-22T14:30:24.451Z,98925.09
2022-08-22T14:33:15.810Z,98912.56
2022-08-22T14:35:52.842Z,98919.91
2022-08-22T14:38:36.865Z,98908.16
2022-08-22T14:41:52.283Z,98910.78
2022-08-22T14:44:30.766Z,98911.38
2022-08-22T14:47:01.097Z,98903.66
2022-08-22T14:49:49.314Z,98909.66
2022-08-22T14:52:37.299Z,98904.06
2022-08-22T14:55:09.978Z,98903.19
2022-08-22T14:57:43.470Z,98899.00
2022-08-22T15:00:12.361Z,98892.22
2022-08-22T15:02:40.335Z,98892.28
2022-08-22T15:05:21.040Z,98888.63
2022-08-22T15:07:54.992Z,98877.97
2022-08-22T15:10:31.896Z,98875.44
2022-08-22T15:13:03.252Z,98882.66
2022-08-22T15:15:49.828Z,98876.38
2022-08-22T15:18:33.859Z,98882.06
2022-08-22T15:21:41.270Z,98879.06
2022-08-22T15:24:12.857Z,98887.75
2022-08-22T15:26:50.063Z,98874.00
2022-08-22T15:29:26.992Z,98875.50
2022-08-22T15:31:58.920Z,98869.34
2022-08-22T15:34:41.881Z,98873.22
2022-08-22T15:37:17.434Z,98871.19
2022-08-22T15:40:11.909Z,98873.72
2022-08-22T15:42:47.805Z,98872.91
2022-08-22T15:45:20.265Z,98872.47
2022-08-22T15:47:52.230Z,98865.75
2022-08-22T15:50:39.246Z,98861.97
2022-08-22T15:53:43.644Z,98862.91
2022-08-22T15:56:13.060Z,98857.34
2022-08-22T15:58:49.046Z,98863.16
2022-08-22T16:01:22.559Z,98862.41
2022-08-22T16:04:02.594Z,98863.34
2022-08-22T16:06:52.243Z,98860.75
2022-08-22T16:09:42.701Z,98868.19
2022-08-22T16:12:26.428Z,98870.38
2022-08-22T16:14:53.564Z,98864.50
2022-08-22T16:17:43.846Z,98863.13
2022-08-22T16:20:19.293Z,98864.66
2022-08-22T16:22:58.642Z,98868.47
2022-08-22T16:25:54.220Z,98864.03
2022-08-22T16:28:36.055Z,98861.13
2022-08-22T16:31:37.223Z,98862.19
2022-08-22T16:34:16.101Z,98862.19
2022-08-22T16:36:44.912Z,98857.66
2022-08-22T16:39:21.636Z,98857.00
2022-08-22T16:41:51.578Z,98853.91
2022-08-22T16:44:30.166Z,98852.47
2022-08-22T16:47:08.640Z,98857.13
2022-08-22T16:49:40.356Z,98858.63
2022-08-22T16:52:25.126Z,98855.06
2022-08-22T16:55:00.348Z,98852.34
2022-08-22T16:58:05.392Z,98849.41
2022-08-22T17:00:58.212Z,98847.19
2022-08-22T17:03:49.747Z,98854.13
2022-08-22T17:06:37.516Z,98852.78
2022-08-22T17:09:30.467Z,98842.34
2022-08-22T17:12:19.360Z,98863.34
2022-08-22T17:14:58.274Z,98859.50
2022-08-22T17:17:50.175Z,98857.88
2022-08-22T17:20:34.324Z,98864.13
2022-08-22T17:23:13.440Z,98857.13
2022-08-22T17:25:54.794Z,98858.81
2022-08-22T17:28:42.009Z,98867.13
2022-08-22T17:31:17.318Z,98862.69
2022-08-22T17:33:52.418Z,98855.22
2022-08-22T17:36:40.764Z,98858.88
2022-08-22T17:39:23.703Z,98866.28
2022-08-22T17:42:20.893Z,98862.19
2022-08-22T17:44:54.106Z,98861.69
2022-08-22T17:47:59.277Z,98861.06
2022-08-22T17:50:52.752Z,98860.16
2022-08-22T17:53:45.031Z,98862.56
2022-08-22T17:56:26.960Z,98859.06
2022-08-22T17:59:04.823Z,98865.34
2022-08-22T18:02:01.810Z,98863.88
2022-08-22T18:04:33.306Z,98864.75
2022-08-22T18:07:38.755Z,98868.19
2022-08-22T18:10:19.584Z,98868.47
2022-08-22T18:13:03.562Z,98874.03
2022-08-22T18:15:42.282Z,98876.69
2022-08-22T18:18:19.702Z,98876.84
2022-08-22T18:20:50.179Z,98875.16
2022-08-22T18:23:35.606Z,98882.34
2022-08-22T18:26:25.151Z,98888.78
2022-08-22T18:29:15.076Z,98883.81
2022-08-22T18:31:49.648Z,98886.69
2022-08-22T18:34:20.604Z,98894.81
2022-08-22T18:37:11.489Z,98899.84
2022-08-22T18:39:46.577Z,98895.72
2022-08-22T18:42:30.276Z,98903.88
2022-08-22T18:44:56.781Z,98903.97
2022-08-22T18:47:27.293Z,98904.78
2022-08-22T18:49:55.236Z,98903.66
2022-08-22T18:52:24.747Z,98898.88
2022-08-22T18:55:12.528Z,98904.88
2022-08-22T18:58:00.925Z,98908.78
2022-08-22T19:01:05.466Z,98911.72
2022-08-22T19:03:40.732Z,98910.03
2022-08-22T19:06:22.352Z,98915.69
2022-08-22T19:09:26.276Z,98925.81
2022-08-22T19:11:58.209Z,98925.44
2022-08-22T19:14:46.269Z,98925.69
2022-08-22T19:17:41.606Z,98930.47
2022-08-22T19:20:39.811Z,98938.56
2022-08-22T19:23:33.871Z,98930.53
2022-08-22T19:26:19.106Z,98945.09
2022-08-22T19:28:45.737Z,98940.53
2022-08-22T19:31:42.721Z,98937.41
2022-08-22T19:34:15.249Z,98947.19
2022-08-22T19:36:42.033Z,98944.63
2022-08-22T19:39:40.398Z,98939.50
2022-08-22T19:42:19.883Z,98946.50
2022-08-22T19:45:01.442Z,98949.22
2022-08-22T19:47:37.468Z,98945.63
2022-08-22T19:50:10.031Z,98950.34
2022-08-22T19:53:08.479Z,98960.00
2022-08-22T19:55:38.076Z,98971.44
2022-08-22T19:58:35.391Z,98968.81
2022-08-22T20:01:20.890Z,98967.47
2022-08-22T20:04:10.113Z,98965.78
2022-08-22T20:06:55.964Z,98968.47
2022-08-22T20:09:41.183Z,98976.31
2022-08-22T20:12:23.332Z,98976.50
2022-08-22T20:14:50.292Z,98980.00
2022-08-22T20:17:43.720Z,98971.34
2022-08-22T20:20:35.666Z,98982.50
2022-08-22T20:23:17.413Z,98981.50
2022-08-22T20:25:50.179Z,98981.34
2022-08-22T20:28:38.697Z,98987.34
2022-08-22T20:31:10.672Z,98984.75
2022-08-22T20:33:40.145Z,98992.69
2022-08-22T20:36:27.094Z,98987.41
2022-08-22T20:38:59.797Z,98986.56
2022-08-22T20:41:32.509Z,98989.16
2022-08-22T20:44:15.893Z,98986.50
2022-08-22T20:46:53.677Z,98990.13
2022-08-22T20:49:32.151Z,98991.25
2022-08-22T20:52:07.111Z,98993.44
2022-08-22T20:54:41.502Z,98991.97
2022-08-22T20:57:17.613Z,98991.00
2022-08-22T20:59:57.724Z,98992.72
2022-08-22T21:02:24.142Z,98990.06
2022-08-22T21:04:50.615Z,98991.03
2022-08-22T21:07:25.781Z,98995.41
2022-08-22T21:10:39.637Z,98991.13
2022-08-22T21:13:26.309Z,99003.28
2022-08-22T21:15:54.072Z,98992.00
2022-08-22T21:18:42.555Z,98998.09
2022-08-22T21:21:24.631Z,98998.97
2022-08-22T21:24:02.156Z,99000.72
2022-08-22T21:26:36.425Z,98993.75
2022-08-22T21:29:12.438Z,98992.84
2022-08-22T21:31:47.869Z,99000.72
2022-08-22T21:34:21.169Z,99004.19
2022-08-22T21:36:51.142Z,99011.16
2022-08-22T21:39:19.728Z,99005.09
2022-08-22T21:42:09.252Z,99008.53
2022-08-22T21:44:38.409Z,99009.34
2022-08-22T21:47:30.804Z,99009.34
2022-08-22T21:50:12.967Z,99000.59
2022-08-22T21:52:44.156Z,99008.47
2022-08-22T21:55:24.175Z,99012.84
2022-08-22T21:58:22.026Z,99018.03
2022-08-22T22:01:25.062Z,99014.50
2022-08-22T22:03:54.406Z,99019.69
2022-08-22T22:06:20.856Z,99016.22
2022-08-22T22:08:47.324Z,99019.72
2022-08-22T22:11:14.838Z,99020.56
2022-08-22T22:13:41.600Z,99029.31
2022-08-22T22:16:09.636Z,99030.97
2022-08-22T22:18:37.385Z,99023.84
2022-08-22T22:21:04.173Z,99024.72
2022-08-22T22:23:30.832Z,99026.53
2022-08-22T22:26:00.726Z,99017.88
2022-08-22T22:28:32.854Z,99028.25
2022-08-22T22:30:59.585Z,99035.13
2022-08-22T22:33:29.853Z,99035.03
2022-08-22T22:36:00.410Z,99032.34
2022-08-22T22:38:26.868Z,99028.03
2022-08-22T22:40:53.411Z,99033.25
2022-08-22T22:43:20.248Z,99035.91
2022-08-22T22:45:46.757Z,99036.78
2022-08-22T22:48:17.411Z,99041.88
2022-08-22T22:50:51.683Z,99032.06
2022-08-22T22:53:19.935Z,99035.53
2022-08-22T22:55:59.712Z,99032.09
2022-08-22T22:58:27.429Z,99040.84
2022-08-22T23:00:54.111Z,99044.22
2022-08-22T23:03:20.846Z,99039.06
2022-08-22T23:05:47.316Z,99038.16
2022-08-22T23:08:13.781Z,99038.03
2022-08-22T23:10:40.302Z,99045.09
2022-08-22T23:13:06.873Z,99046.00
2022-08-22T23:15:33.523Z,99042.47
2022-08-22T23:18:00.244Z,99044.16
2022-08-22T23:20:26.924Z,99052.72
2022-08-22T23:22:53.432Z,99054.56
2022-08-22T23:25:19.970Z,99065.63
2022-08-22T23:27:48.685Z,99066.47
2022-08-22T23:30:19.345Z,99064.50
2022-08-22T23:32:45.795Z,99058.53
2022-08-22T23:35:12.304Z,99059.34
2022-08-22T23:37:38.764Z,99060.22
2022-08-22T23:40:07.803Z,99060.16
2022-08-22T23:42:34.449Z,99054.94
2022-08-22T23:45:00.920Z,99059.31
2022-08-22T23:47:27.371Z,99062.84
2022-08-22T23:49:53.964Z,99057.56
2022-08-22T23:52:20.792Z,99061.13
2022-08-22T23:54:47.546Z,99067.13
2022-08-22T23:57:20.834Z,99057.47
2022-08-22T23:59:57.902Z,99062.66
